Airfield :
LOGIN :

Register | Disclaimer

   EN    FR    IT 

 










Legend :    VFR   Marginal VFR   IFR   Intensive IFR   Very Intensive IFR
Visi :
Ceiling :
>= 8 km
>= 3000ft
5 to 8 km
1000 to 3000 ft
1500m to 5 km
500 to 1000 ft
800 to 1500m
200 to 500 ft
< 800m
< 200 ft
Symbols :   Thunderstorms  Fog  Heavy snow  Heavy precipitations  Wind > 20 kt
SIGMETs :     Misc.  Thunderstorms  Icing  Turbulence  Mountain Waves  Volcanic Ashes






- Airport Elevation : 458 ft


LFSI - St-Dizier

CURRENT METAR :
  • 230800Z AUTO 08004KT 040V120 8000 OVC008 13/11 Q1013

EXPIRED METARs :
  • 230730Z AUTO 07007KT 7000 OVC007 12/11 Q1013
  • 230700Z AUTO 06007KT 6000 OVC007 12/11 Q1014
  • 230630Z AUTO 09007KT 7000 OVC007 12/11 Q1014
  • 230600Z AUTO 08003KT 030V140 6000 OVC007 12/11 Q1014
  • 230530Z AUTO 08008KT 6000 OVC007 12/11 Q1014

TAF TAF LFSI
Valid from the 23 at 03:00 until the 24 at 03:00 UTC


230200Z 2303/2403 VRB02KT 8000 BKN006
PROB30
TEMPO 2303/2307 3000 BR BKN003 BKN005
PROB30
TEMPO 2303/2307 0800 FG VV///
BECMG 2308/2310 SCT020



MET'MAP, your aeronautical weather chart ! - Copyright ORBIFLY December 2007 - Disclaimer

ORBIFLY MET'MAP TEAM :

Programming & Development : Alexandra Zaïnal
Concept & Development : Baudouin d'Aumeries
Co-Development & Prog : Marc-Olivier Méhu
Technical & hardware support : Manuel Goepfert

Contact : metmap@orbifly.com




SOURCES & CREDITS :

   NOAA